sensor_id;sensor_type;location;lat;lon;timestamp;temperature;humidity
60313;DHT22;46158;52.850;6.970;2023-02-01T00:01:42;13.20;70.00
60313;DHT22;46158;52.850;6.970;2023-02-01T00:04:08;13.10;70.00
60313;DHT22;46158;52.850;6.970;2023-02-01T00:06:33;13.20;70.00
60313;DHT22;46158;52.850;6.970;2023-02-01T00:08:59;13.10;69.90
60313;DHT22;46158;52.850;6.970;2023-02-01T00:11:24;13.10;69.90
60313;DHT22;46158;52.850;6.970;2023-02-01T00:13:50;13.10;69.90
60313;DHT22;46158;52.850;6.970;2023-02-01T00:16:17;13.10;69.90
60313;DHT22;46158;52.850;6.970;2023-02-01T00:18:44;13.10;69.90
60313;DHT22;46158;52.850;6.970;2023-02-01T00:21:10;13.00;69.80
60313;DHT22;46158;52.850;6.970;2023-02-01T00:23:36;13.10;69.80
60313;DHT22;46158;52.850;6.970;2023-02-01T00:26:02;13.00;69.80
60313;DHT22;46158;52.850;6.970;2023-02-01T00:28:29;13.00;69.70
60313;DHT22;46158;52.850;6.970;2023-02-01T00:30:58;13.00;69.70
60313;DHT22;46158;52.850;6.970;2023-02-01T00:33:24;13.00;69.70
60313;DHT22;46158;52.850;6.970;2023-02-01T00:35:50;13.00;69.70
60313;DHT22;46158;52.850;6.970;2023-02-01T00:38:16;13.00;69.70
60313;DHT22;46158;52.850;6.970;2023-02-01T00:40:41;13.00;69.60
60313;DHT22;46158;52.850;6.970;2023-02-01T00:43:07;12.90;70.30
60313;DHT22;46158;52.850;6.970;2023-02-01T00:45:33;12.90;69.60
60313;DHT22;46158;52.850;6.970;2023-02-01T00:47:58;12.90;69.60
60313;DHT22;46158;52.850;6.970;2023-02-01T00:50:24;13.00;69.60
60313;DHT22;46158;52.850;6.970;2023-02-01T00:52:49;12.90;69.50
60313;DHT22;46158;52.850;6.970;2023-02-01T00:55:15;12.90;69.50
60313;DHT22;46158;52.850;6.970;2023-02-01T00:57:41;12.90;69.50
60313;DHT22;46158;52.850;6.970;2023-02-01T01:00:07;12.90;69.40
60313;DHT22;46158;52.850;6.970;2023-02-01T01:02:33;12.90;69.40
60313;DHT22;46158;52.850;6.970;2023-02-01T01:04:59;12.90;69.50
60313;DHT22;46158;52.850;6.970;2023-02-01T01:07:24;12.90;69.50
60313;DHT22;46158;52.850;6.970;2023-02-01T01:09:50;12.90;69.50
60313;DHT22;46158;52.850;6.970;2023-02-01T01:12:15;12.80;69.40
60313;DHT22;46158;52.850;6.970;2023-02-01T01:14:41;12.80;69.30
60313;DHT22;46158;52.850;6.970;2023-02-01T01:17:10;12.80;69.30
60313;DHT22;46158;52.850;6.970;2023-02-01T01:19:36;12.80;69.30
60313;DHT22;46158;52.850;6.970;2023-02-01T01:22:01;12.80;69.30
60313;DHT22;46158;52.850;6.970;2023-02-01T01:24:27;12.80;69.30
60313;DHT22;46158;52.850;6.970;2023-02-01T01:26:52;12.80;69.20
60313;DHT22;46158;52.850;6.970;2023-02-01T01:29:18;12.70;69.10
60313;DHT22;46158;52.850;6.970;2023-02-01T01:31:44;12.70;69.10
60313;DHT22;46158;52.850;6.970;2023-02-01T01:34:09;12.70;69.10
60313;DHT22;46158;52.850;6.970;2023-02-01T01:36:35;12.70;69.10
60313;DHT22;46158;52.850;6.970;2023-02-01T01:39:00;12.70;69.10
60313;DHT22;46158;52.850;6.970;2023-02-01T01:41:28;12.70;69.00
60313;DHT22;46158;52.850;6.970;2023-02-01T01:43:55;12.70;69.00
60313;DHT22;46158;52.850;6.970;2023-02-01T01:46:25;12.60;68.90
60313;DHT22;46158;52.850;6.970;2023-02-01T01:48:53;12.70;68.90
60313;DHT22;46158;52.850;6.970;2023-02-01T01:51:21;12.70;68.90
60313;DHT22;46158;52.850;6.970;2023-02-01T01:53:52;12.70;68.90
60313;DHT22;46158;52.850;6.970;2023-02-01T01:56:18;12.60;68.80
60313;DHT22;46158;52.850;6.970;2023-02-01T01:58:44;12.60;68.80
60313;DHT22;46158;52.850;6.970;2023-02-01T02:01:10;12.60;68.80
60313;DHT22;46158;52.850;6.970;2023-02-01T02:03:40;12.60;68.80
60313;DHT22;46158;52.850;6.970;2023-02-01T02:06:12;12.60;68.80
60313;DHT22;46158;52.850;6.970;2023-02-01T02:08:40;12.60;68.70
60313;DHT22;46158;52.850;6.970;2023-02-01T02:11:06;12.60;68.80
60313;DHT22;46158;52.850;6.970;2023-02-01T02:13:33;12.60;68.70
60313;DHT22;46158;52.850;6.970;2023-02-01T02:23:40;12.50;68.60
60313;DHT22;46158;52.850;6.970;2023-02-01T02:31:20;12.50;68.60
60313;DHT22;46158;52.850;6.970;2023-02-01T02:41:42;12.50;68.50
60313;DHT22;46158;52.850;6.970;2023-02-01T02:44:43;12.40;68.40
60313;DHT22;46158;52.850;6.970;2023-02-01T02:47:32;12.40;68.40
60313;DHT22;46158;52.850;6.970;2023-02-01T02:50:23;12.40;68.40
60313;DHT22;46158;52.850;6.970;2023-02-01T02:53:25;12.40;68.40
60313;DHT22;46158;52.850;6.970;2023-02-01T02:56:07;12.40;68.40
60313;DHT22;46158;52.850;6.970;2023-02-01T02:58:53;12.40;68.50
60313;DHT22;46158;52.850;6.970;2023-02-01T03:01:38;12.40;68.40
60313;DHT22;46158;52.850;6.970;2023-02-01T03:04:24;12.40;68.40
60313;DHT22;46158;52.850;6.970;2023-02-01T03:06:51;12.40;68.40
60313;DHT22;46158;52.850;6.970;2023-02-01T03:11:45;12.40;68.40
60313;DHT22;46158;52.850;6.970;2023-02-01T03:14:31;12.40;68.40
60313;DHT22;46158;52.850;6.970;2023-02-01T03:17:04;12.40;68.40
60313;DHT22;46158;52.850;6.970;2023-02-01T03:19:37;12.40;68.40
60313;DHT22;46158;52.850;6.970;2023-02-01T03:22:10;12.40;68.50
60313;DHT22;46158;52.850;6.970;2023-02-01T03:24:41;12.40;68.40
60313;DHT22;46158;52.850;6.970;2023-02-01T03:27:09;12.40;68.50
60313;DHT22;46158;52.850;6.970;2023-02-01T03:29:38;12.40;68.50
60313;DHT22;46158;52.850;6.970;2023-02-01T03:32:06;12.40;68.50
60313;DHT22;46158;52.850;6.970;2023-02-01T03:34:31;12.40;68.50
60313;DHT22;46158;52.850;6.970;2023-02-01T03:37:02;12.40;68.50
60313;DHT22;46158;52.850;6.970;2023-02-01T03:42:24;12.40;68.40
60313;DHT22;46158;52.850;6.970;2023-02-01T03:45:11;12.40;68.40
60313;DHT22;46158;52.850;6.970;2023-02-01T03:47:42;12.40;68.40
60313;DHT22;46158;52.850;6.970;2023-02-01T03:50:12;12.40;68.40
60313;DHT22;46158;52.850;6.970;2023-02-01T03:55:04;12.40;68.70
60313;DHT22;46158;52.850;6.970;2023-02-01T03:57:32;12.40;68.40
60313;DHT22;46158;52.850;6.970;2023-02-01T04:00:08;12.40;68.40
60313;DHT22;46158;52.850;6.970;2023-02-01T04:02:37;12.40;68.40
60313;DHT22;46158;52.850;6.970;2023-02-01T04:05:03;12.40;68.40
60313;DHT22;46158;52.850;6.970;2023-02-01T04:07:29;12.40;68.40
60313;DHT22;46158;52.850;6.970;2023-02-01T04:09:55;12.40;68.40
60313;DHT22;46158;52.850;6.970;2023-02-01T04:12:20;12.40;68.30
60313;DHT22;46158;52.850;6.970;2023-02-01T04:14:46;12.40;68.40
60313;DHT22;46158;52.850;6.970;2023-02-01T04:17:11;12.40;68.40
60313;DHT22;46158;52.850;6.970;2023-02-01T04:19:37;12.40;68.40
60313;DHT22;46158;52.850;6.970;2023-02-01T04:22:05;12.40;68.40
60313;DHT22;46158;52.850;6.970;2023-02-01T04:24:31;12.40;68.40
60313;DHT22;46158;52.850;6.970;2023-02-01T04:26:57;12.40;68.40
60313;DHT22;46158;52.850;6.970;2023-02-01T04:29:22;12.40;68.40
60313;DHT22;46158;52.850;6.970;2023-02-01T04:31:48;12.40;68.40
60313;DHT22;46158;52.850;6.970;2023-02-01T04:34:17;12.40;68.40
60313;DHT22;46158;52.850;6.970;2023-02-01T04:36:43;12.40;68.40
60313;DHT22;46158;52.850;6.970;2023-02-01T04:39:09;12.40;68.40
60313;DHT22;46158;52.850;6.970;2023-02-01T04:41:35;12.40;68.30
60313;DHT22;46158;52.850;6.970;2023-02-01T04:44:02;12.40;68.40
60313;DHT22;46158;52.850;6.970;2023-02-01T04:46:28;12.40;68.40
60313;DHT22;46158;52.850;6.970;2023-02-01T04:48:56;12.30;68.30
60313;DHT22;46158;52.850;6.970;2023-02-01T04:51:22;12.30;68.30
60313;DHT22;46158;52.850;6.970;2023-02-01T04:53:47;12.30;68.30
60313;DHT22;46158;52.850;6.970;2023-02-01T04:56:13;12.30;68.30
60313;DHT22;46158;52.850;6.970;2023-02-01T04:58:38;12.30;68.30
60313;DHT22;46158;52.850;6.970;2023-02-01T05:01:05;12.30;68.30
60313;DHT22;46158;52.850;6.970;2023-02-01T05:03:31;12.30;68.30
60313;DHT22;46158;52.850;6.970;2023-02-01T05:05:57;12.40;68.30
60313;DHT22;46158;52.850;6.970;2023-02-01T05:08:22;12.40;68.30
60313;DHT22;46158;52.850;6.970;2023-02-01T05:10:50;12.30;68.30
60313;DHT22;46158;52.850;6.970;2023-02-01T05:13:16;12.40;69.00
60313;DHT22;46158;52.850;6.970;2023-02-01T05:16:00;12.40;68.30
60313;DHT22;46158;52.850;6.970;2023-02-01T05:18:25;12.40;68.40
60313;DHT22;46158;52.850;6.970;2023-02-01T05:20:51;12.40;68.40
60313;DHT22;46158;52.850;6.970;2023-02-01T05:23:16;12.40;68.50
60313;DHT22;46158;52.850;6.970;2023-02-01T05:25:42;12.40;68.60
60313;DHT22;46158;52.850;6.970;2023-02-01T05:28:08;12.40;68.70
60313;DHT22;46158;52.850;6.970;2023-02-01T05:30:33;12.40;68.80
60313;DHT22;46158;52.850;6.970;2023-02-01T05:33:00;12.40;68.90
60313;DHT22;46158;52.850;6.970;2023-02-01T05:35:27;12.40;69.00
60313;DHT22;46158;52.850;6.970;2023-02-01T05:37:52;12.50;69.20
60313;DHT22;46158;52.850;6.970;2023-02-01T05:40:28;12.50;69.20
60313;DHT22;46158;52.850;6.970;2023-02-01T05:42:54;12.50;69.40
60313;DHT22;46158;52.850;6.970;2023-02-01T05:45:19;12.50;69.50
60313;DHT22;46158;52.850;6.970;2023-02-01T05:47:45;12.50;69.60
60313;DHT22;46158;52.850;6.970;2023-02-01T05:50:10;12.50;69.60
60313;DHT22;46158;52.850;6.970;2023-02-01T05:52:36;12.60;69.70
60313;DHT22;46158;52.850;6.970;2023-02-01T05:55:02;12.60;69.70
60313;DHT22;46158;52.850;6.970;2023-02-01T05:57:30;12.50;69.70
60313;DHT22;46158;52.850;6.970;2023-02-01T05:59:56;12.60;69.80
60313;DHT22;46158;52.850;6.970;2023-02-01T06:02:22;12.60;69.80
60313;DHT22;46158;52.850;6.970;2023-02-01T06:04:49;12.60;69.80
60313;DHT22;46158;52.850;6.970;2023-02-01T06:07:15;12.60;69.90
60313;DHT22;46158;52.850;6.970;2023-02-01T06:09:41;12.70;70.00
60313;DHT22;46158;52.850;6.970;2023-02-01T06:12:06;12.70;70.00
60313;DHT22;46158;52.850;6.970;2023-02-01T06:14:32;12.70;70.10
60313;DHT22;46158;52.850;6.970;2023-02-01T06:16:58;12.70;70.10
60313;DHT22;46158;52.850;6.970;2023-02-01T06:19:23;12.70;70.10
60313;DHT22;46158;52.850;6.970;2023-02-01T06:21:49;12.70;70.20
60313;DHT22;46158;52.850;6.970;2023-02-01T06:24:15;12.80;70.30
60313;DHT22;46158;52.850;6.970;2023-02-01T06:26:41;12.80;70.40
60313;DHT22;46158;52.850;6.970;2023-02-01T06:29:07;12.80;70.40
60313;DHT22;46158;52.850;6.970;2023-02-01T06:31:33;12.80;70.50
60313;DHT22;46158;52.850;6.970;2023-02-01T06:33:59;12.80;70.60
60313;DHT22;46158;52.850;6.970;2023-02-01T06:36:25;12.90;70.70
60313;DHT22;46158;52.850;6.970;2023-02-01T06:38:50;12.90;70.80
60313;DHT22;46158;52.850;6.970;2023-02-01T06:41:16;12.90;70.90
60313;DHT22;46158;52.850;6.970;2023-02-01T06:43:42;13.00;71.00
60313;DHT22;46158;52.850;6.970;2023-02-01T06:46:09;13.00;71.10
60313;DHT22;46158;52.850;6.970;2023-02-01T06:48:36;13.00;71.00
60313;DHT22;46158;52.850;6.970;2023-02-01T06:51:02;13.00;71.00
60313;DHT22;46158;52.850;6.970;2023-02-01T06:53:28;13.10;71.10
60313;DHT22;46158;52.850;6.970;2023-02-01T06:56:00;13.10;71.10
60313;DHT22;46158;52.850;6.970;2023-02-01T06:58:30;13.10;71.10
60313;DHT22;46158;52.850;6.970;2023-02-01T07:01:05;13.20;71.10
60313;DHT22;46158;52.850;6.970;2023-02-01T07:03:31;13.20;71.90
60313;DHT22;46158;52.850;6.970;2023-02-01T07:06:00;13.30;71.30
60313;DHT22;46158;52.850;6.970;2023-02-01T07:08:29;13.30;71.40
60313;DHT22;46158;52.850;6.970;2023-02-01T07:10:56;13.30;71.30
60313;DHT22;46158;52.850;6.970;2023-02-01T07:13:25;13.30;71.20
60313;DHT22;46158;52.850;6.970;2023-02-01T07:15:50;13.40;71.30
60313;DHT22;46158;52.850;6.970;2023-02-01T07:18:19;13.40;71.20
60313;DHT22;46158;52.850;6.970;2023-02-01T07:20:49;13.40;71.20
60313;DHT22;46158;52.850;6.970;2023-02-01T07:23:14;13.40;71.20
60313;DHT22;46158;52.850;6.970;2023-02-01T07:25:40;13.40;71.20
60313;DHT22;46158;52.850;6.970;2023-02-01T07:28:06;13.50;71.10
60313;DHT22;46158;52.850;6.970;2023-02-01T07:30:31;13.50;71.20
60313;DHT22;46158;52.850;6.970;2023-02-01T07:32:57;13.50;71.10
60313;DHT22;46158;52.850;6.970;2023-02-01T07:35:29;13.50;71.10
60313;DHT22;46158;52.850;6.970;2023-02-01T07:38:01;13.60;71.10
60313;DHT22;46158;52.850;6.970;2023-02-01T07:40:31;13.60;71.00
60313;DHT22;46158;52.850;6.970;2023-02-01T07:42:57;13.60;71.00
60313;DHT22;46158;52.850;6.970;2023-02-01T07:45:23;13.60;71.00
60313;DHT22;46158;52.850;6.970;2023-02-01T07:47:51;13.60;71.00
60313;DHT22;46158;52.850;6.970;2023-02-01T07:50:17;13.60;71.00
60313;DHT22;46158;52.850;6.970;2023-02-01T07:52:43;13.60;71.00
60313;DHT22;46158;52.850;6.970;2023-02-01T07:55:09;13.60;71.00
60313;DHT22;46158;52.850;6.970;2023-02-01T07:57:35;13.70;71.10
60313;DHT22;46158;52.850;6.970;2023-02-01T08:00:07;13.70;71.10
60313;DHT22;46158;52.850;6.970;2023-02-01T08:02:52;13.70;71.10
60313;DHT22;46158;52.850;6.970;2023-02-01T08:05:24;13.70;71.00
60313;DHT22;46158;52.850;6.970;2023-02-01T08:07:50;13.70;71.00
60313;DHT22;46158;52.850;6.970;2023-02-01T08:10:16;13.70;71.00
60313;DHT22;46158;52.850;6.970;2023-02-01T08:12:42;13.70;70.90
60313;DHT22;46158;52.850;6.970;2023-02-01T08:15:09;13.80;71.00
60313;DHT22;46158;52.850;6.970;2023-02-01T08:17:34;13.80;70.90
60313;DHT22;46158;52.850;6.970;2023-02-01T08:20:00;13.80;70.90
60313;DHT22;46158;52.850;6.970;2023-02-01T08:22:30;13.80;70.70
60313;DHT22;46158;52.850;6.970;2023-02-01T08:24:56;13.80;70.80
60313;DHT22;46158;52.850;6.970;2023-02-01T08:27:29;13.80;70.70
60313;DHT22;46158;52.850;6.970;2023-02-01T08:29:57;13.90;70.80
60313;DHT22;46158;52.850;6.970;2023-02-01T08:32:25;13.80;70.70
60313;DHT22;46158;52.850;6.970;2023-02-01T08:34:57;13.80;70.70
60313;DHT22;46158;52.850;6.970;2023-02-01T08:37:22;13.80;71.40
60313;DHT22;46158;52.850;6.970;2023-02-01T08:39:48;13.90;70.90
60313;DHT22;46158;52.850;6.970;2023-02-01T08:42:16;13.90;70.90
60313;DHT22;46158;52.850;6.970;2023-02-01T08:45:00;13.90;71.10
60313;DHT22;46158;52.850;6.970;2023-02-01T08:47:26;13.90;71.10
60313;DHT22;46158;52.850;6.970;2023-02-01T08:49:52;13.90;71.10
60313;DHT22;46158;52.850;6.970;2023-02-01T08:52:27;13.90;71.20
60313;DHT22;46158;52.850;6.970;2023-02-01T08:54:53;13.90;71.10
60313;DHT22;46158;52.850;6.970;2023-02-01T08:57:21;13.90;71.30
60313;DHT22;46158;52.850;6.970;2023-02-01T08:59:47;13.90;71.20
60313;DHT22;46158;52.850;6.970;2023-02-01T09:02:15;13.90;71.20
60313;DHT22;46158;52.850;6.970;2023-02-01T09:04:41;13.90;71.10
60313;DHT22;46158;52.850;6.970;2023-02-01T09:07:10;13.90;71.10
60313;DHT22;46158;52.850;6.970;2023-02-01T09:09:36;13.90;71.10
60313;DHT22;46158;52.850;6.970;2023-02-01T09:12:02;14.00;71.10
60313;DHT22;46158;52.850;6.970;2023-02-01T09:14:31;14.00;71.00
60313;DHT22;46158;52.850;6.970;2023-02-01T09:17:06;14.00;71.00
60313;DHT22;46158;52.850;6.970;2023-02-01T09:20:03;14.00;70.90
60313;DHT22;46158;52.850;6.970;2023-02-01T09:22:35;14.00;70.80
60313;DHT22;46158;52.850;6.970;2023-02-01T09:25:00;14.00;70.80
60313;DHT22;46158;52.850;6.970;2023-02-01T09:27:26;14.00;70.80
60313;DHT22;46158;52.850;6.970;2023-02-01T09:30:03;14.00;70.80
60313;DHT22;46158;52.850;6.970;2023-02-01T09:32:28;14.00;70.90
60313;DHT22;46158;52.850;6.970;2023-02-01T09:34:54;14.00;70.80
60313;DHT22;46158;52.850;6.970;2023-02-01T09:37:19;14.00;70.80
60313;DHT22;46158;52.850;6.970;2023-02-01T09:39:45;14.00;70.80
60313;DHT22;46158;52.850;6.970;2023-02-01T09:45:20;14.00;70.80
60313;DHT22;46158;52.850;6.970;2023-02-01T09:47:52;14.00;70.70
60313;DHT22;46158;52.850;6.970;2023-02-01T09:50:19;14.00;70.70
60313;DHT22;46158;52.850;6.970;2023-02-01T09:52:54;14.00;70.70
60313;DHT22;46158;52.850;6.970;2023-02-01T09:55:42;14.00;70.60
60313;DHT22;46158;52.850;6.970;2023-02-01T10:00:54;14.00;70.60
60313;DHT22;46158;52.850;6.970;2023-02-01T10:11:21;14.00;70.30
60313;DHT22;46158;52.850;6.970;2023-02-01T10:16:41;14.00;70.30
60313;DHT22;46158;52.850;6.970;2023-02-01T10:26:40;14.00;70.40
60313;DHT22;46158;52.850;6.970;2023-02-01T10:29:12;14.00;70.30
60313;DHT22;46158;52.850;6.970;2023-02-01T10:31:40;14.00;70.30
60313;DHT22;46158;52.850;6.970;2023-02-01T10:34:16;14.00;70.30
60313;DHT22;46158;52.850;6.970;2023-02-01T10:36:50;13.90;70.30
60313;DHT22;46158;52.850;6.970;2023-02-01T10:39:17;14.00;70.40
60313;DHT22;46158;52.850;6.970;2023-02-01T10:41:49;14.00;70.40
60313;DHT22;46158;52.850;6.970;2023-02-01T10:44:22;13.90;70.30
60313;DHT22;46158;52.850;6.970;2023-02-01T10:46:49;13.90;70.40
60313;DHT22;46158;52.850;6.970;2023-02-01T10:49:33;13.90;70.40
60313;DHT22;46158;52.850;6.970;2023-02-01T10:54:35;14.00;70.30
60313;DHT22;46158;52.850;6.970;2023-02-01T10:57:01;14.00;70.30
60313;DHT22;46158;52.850;6.970;2023-02-01T10:59:28;13.90;70.20
60313;DHT22;46158;52.850;6.970;2023-02-01T11:02:36;13.90;70.20
60313;DHT22;46158;52.850;6.970;2023-02-01T11:04:49;13.90;70.20
60313;DHT22;46158;52.850;6.970;2023-02-01T11:07:33;13.90;70.20
60313;DHT22;46158;52.850;6.970;2023-02-01T11:09:59;13.90;70.20
60313;DHT22;46158;52.850;6.970;2023-02-01T11:15:21;13.90;70.20
60313;DHT22;46158;52.850;6.970;2023-02-01T11:18:16;13.90;70.20
60313;DHT22;46158;52.850;6.970;2023-02-01T11:20:43;13.90;70.20
60313;DHT22;46158;52.850;6.970;2023-02-01T11:23:19;13.90;70.20
60313;DHT22;46158;52.850;6.970;2023-02-01T11:26:01;13.90;70.10
60313;DHT22;46158;52.850;6.970;2023-02-01T11:28:33;13.90;70.10
60313;DHT22;46158;52.850;6.970;2023-02-01T11:31:02;13.90;70.10
60313;DHT22;46158;52.850;6.970;2023-02-01T11:33:32;13.90;70.10
60313;DHT22;46158;52.850;6.970;2023-02-01T11:36:01;13.90;70.10
60313;DHT22;46158;52.850;6.970;2023-02-01T11:38:35;13.90;70.10
60313;DHT22;46158;52.850;6.970;2023-02-01T11:41:14;13.90;70.00
60313;DHT22;46158;52.850;6.970;2023-02-01T11:46:47;13.90;70.00
60313;DHT22;46158;52.850;6.970;2023-02-01T11:49:20;13.80;70.00
60313;DHT22;46158;52.850;6.970;2023-02-01T12:02:26;13.80;70.00
60313;DHT22;46158;52.850;6.970;2023-02-01T12:05:14;13.80;70.00
60313;DHT22;46158;52.850;6.970;2023-02-01T12:18:58;13.80;70.00
60313;DHT22;46158;52.850;6.970;2023-02-01T12:24:08;13.80;70.00
60313;DHT22;46158;52.850;6.970;2023-02-01T12:26:54;13.80;70.10
60313;DHT22;46158;52.850;6.970;2023-02-01T12:32:16;13.80;70.00
60313;DHT22;46158;52.850;6.970;2023-02-01T12:34:53;13.80;70.00
60313;DHT22;46158;52.850;6.970;2023-02-01T12:37:27;13.80;70.00
60313;DHT22;46158;52.850;6.970;2023-02-01T12:42:42;13.80;70.00
60313;DHT22;46158;52.850;6.970;2023-02-01T12:45:30;13.80;70.10
60313;DHT22;46158;52.850;6.970;2023-02-01T12:50:45;13.80;70.10
60313;DHT22;46158;52.850;6.970;2023-02-01T12:53:25;13.70;70.00
60313;DHT22;46158;52.850;6.970;2023-02-01T12:56:11;13.70;70.80
60313;DHT22;46158;52.850;6.970;2023-02-01T12:58:44;13.80;70.10
60313;DHT22;46158;52.850;6.970;2023-02-01T13:01:18;13.70;70.10
60313;DHT22;46158;52.850;6.970;2023-02-01T13:06:36;13.70;70.10
60313;DHT22;46158;52.850;6.970;2023-02-01T13:11:38;13.70;70.20
60313;DHT22;46158;52.850;6.970;2023-02-01T13:16:45;13.70;70.20
60313;DHT22;46158;52.850;6.970;2023-02-01T13:19:23;13.70;70.10
60313;DHT22;46158;52.850;6.970;2023-02-01T13:21:58;13.70;70.10
60313;DHT22;46158;52.850;6.970;2023-02-01T13:27:12;13.70;70.20
60313;DHT22;46158;52.850;6.970;2023-02-01T13:29:53;13.70;70.20
60313;DHT22;46158;52.850;6.970;2023-02-01T13:32:30;13.70;70.30
60313;DHT22;46158;52.850;6.970;2023-02-01T13:35:19;13.70;70.30
60313;DHT22;46158;52.850;6.970;2023-02-01T13:41:29;13.70;70.40
60313;DHT22;46158;52.850;6.970;2023-02-01T13:43:28;13.70;70.50
60313;DHT22;46158;52.850;6.970;2023-02-01T13:46:02;13.70;70.60
60313;DHT22;46158;52.850;6.970;2023-02-01T13:48:34;13.70;70.60
60313;DHT22;46158;52.850;6.970;2023-02-01T13:51:09;13.70;70.60
60313;DHT22;46158;52.850;6.970;2023-02-01T13:53:45;13.70;70.60
60313;DHT22;46158;52.850;6.970;2023-02-01T13:56:21;13.70;70.70
60313;DHT22;46158;52.850;6.970;2023-02-01T13:58:51;13.70;70.30
60313;DHT22;46158;52.850;6.970;2023-02-01T14:04:01;13.70;71.40
60313;DHT22;46158;52.850;6.970;2023-02-01T14:19:30;13.70;70.90
60313;DHT22;46158;52.850;6.970;2023-02-01T14:25:14;13.70;70.80
60313;DHT22;46158;52.850;6.970;2023-02-01T14:27:42;13.70;70.90
60313;DHT22;46158;52.850;6.970;2023-02-01T14:30:11;13.70;70.70
60313;DHT22;46158;52.850;6.970;2023-02-01T14:32:43;13.70;70.80
60313;DHT22;46158;52.850;6.970;2023-02-01T14:35:23;13.70;70.70
60313;DHT22;46158;52.850;6.970;2023-02-01T14:37:51;13.70;70.70
60313;DHT22;46158;52.850;6.970;2023-02-01T14:40:23;13.70;70.70
60313;DHT22;46158;52.850;6.970;2023-02-01T14:42:55;13.70;70.70
60313;DHT22;46158;52.850;6.970;2023-02-01T14:47:53;13.70;70.60
60313;DHT22;46158;52.850;6.970;2023-02-01T14:55:48;13.70;70.70
60313;DHT22;46158;52.850;6.970;2023-02-01T15:00:54;13.70;70.60
60313;DHT22;46158;52.850;6.970;2023-02-01T15:05:57;13.60;70.60
60313;DHT22;46158;52.850;6.970;2023-02-01T15:08:43;13.60;70.70
60313;DHT22;46158;52.850;6.970;2023-02-01T15:11:16;13.60;70.70
60313;DHT22;46158;52.850;6.970;2023-02-01T15:13:48;13.60;70.80
60313;DHT22;46158;52.850;6.970;2023-02-01T15:16:15;13.60;70.80
60313;DHT22;46158;52.850;6.970;2023-02-01T15:18:42;13.60;70.80
60313;DHT22;46158;52.850;6.970;2023-02-01T15:21:16;13.60;70.80
60313;DHT22;46158;52.850;6.970;2023-02-01T15:23:45;13.60;70.90
60313;DHT22;46158;52.850;6.970;2023-02-01T15:26:26;13.60;70.90
60313;DHT22;46158;52.850;6.970;2023-02-01T15:28:52;13.60;70.90
60313;DHT22;46158;52.850;6.970;2023-02-01T15:31:30;13.60;71.00
60313;DHT22;46158;52.850;6.970;2023-02-01T15:33:56;13.60;71.00
60313;DHT22;46158;52.850;6.970;2023-02-01T15:36:23;13.60;70.90
60313;DHT22;46158;52.850;6.970;2023-02-01T15:39:35;13.60;70.90
60313;DHT22;46158;52.850;6.970;2023-02-01T15:41:37;13.60;71.00
60313;DHT22;46158;52.850;6.970;2023-02-01T15:46:49;13.60;71.00
60313;DHT22;46158;52.850;6.970;2023-02-01T15:49:18;13.60;71.00
60313;DHT22;46158;52.850;6.970;2023-02-01T15:51:45;13.60;71.00
60313;DHT22;46158;52.850;6.970;2023-02-01T15:54:16;13.60;71.10
60313;DHT22;46158;52.850;6.970;2023-02-01T15:56:49;13.60;71.10
60313;DHT22;46158;52.850;6.970;2023-02-01T15:59:29;13.60;71.10
60313;DHT22;46158;52.850;6.970;2023-02-01T16:01:56;13.60;71.00
60313;DHT22;46158;52.850;6.970;2023-02-01T16:04:31;13.60;71.00
60313;DHT22;46158;52.850;6.970;2023-02-01T16:07:20;13.60;71.00
60313;DHT22;46158;52.850;6.970;2023-02-01T16:09:53;13.60;71.10
60313;DHT22;46158;52.850;6.970;2023-02-01T16:12:23;13.60;71.10
60313;DHT22;46158;52.850;6.970;2023-02-01T16:14:52;13.60;71.40
60313;DHT22;46158;52.850;6.970;2023-02-01T16:17:19;13.60;71.10
60313;DHT22;46158;52.850;6.970;2023-02-01T16:19:44;13.60;71.10
60313;DHT22;46158;52.850;6.970;2023-02-01T16:22:13;13.60;71.10
60313;DHT22;46158;52.850;6.970;2023-02-01T16:24:42;13.60;71.10
60313;DHT22;46158;52.850;6.970;2023-02-01T16:27:10;13.60;71.10
60313;DHT22;46158;52.850;6.970;2023-02-01T16:29:36;13.60;71.50
60313;DHT22;46158;52.850;6.970;2023-02-01T16:32:02;13.60;71.10
60313;DHT22;46158;52.850;6.970;2023-02-01T16:34:29;13.60;71.10
60313;DHT22;46158;52.850;6.970;2023-02-01T16:36:55;13.60;71.20
60313;DHT22;46158;52.850;6.970;2023-02-01T16:39:22;13.60;71.10
60313;DHT22;46158;52.850;6.970;2023-02-01T16:41:51;13.60;71.10
60313;DHT22;46158;52.850;6.970;2023-02-01T16:44:17;13.60;71.10
60313;DHT22;46158;52.850;6.970;2023-02-01T16:46:44;13.60;71.10
60313;DHT22;46158;52.850;6.970;2023-02-01T16:49:21;13.60;71.00
60313;DHT22;46158;52.850;6.970;2023-02-01T16:51:48;13.60;71.00
60313;DHT22;46158;52.850;6.970;2023-02-01T16:54:15;13.50;70.90
60313;DHT22;46158;52.850;6.970;2023-02-01T16:56:41;13.60;71.10
60313;DHT22;46158;52.850;6.970;2023-02-01T16:59:07;13.60;71.10
60313;DHT22;46158;52.850;6.970;2023-02-01T17:01:34;13.60;71.10
60313;DHT22;46158;52.850;6.970;2023-02-01T17:04:01;13.60;71.30
60313;DHT22;46158;52.850;6.970;2023-02-01T17:06:28;13.60;71.30
60313;DHT22;46158;52.850;6.970;2023-02-01T17:08:55;13.60;71.40
60313;DHT22;46158;52.850;6.970;2023-02-01T17:11:23;13.60;71.50
60313;DHT22;46158;52.850;6.970;2023-02-01T17:13:48;13.60;71.50
60313;DHT22;46158;52.850;6.970;2023-02-01T17:18:41;13.60;71.70
60313;DHT22;46158;52.850;6.970;2023-02-01T17:21:06;13.60;71.70
60313;DHT22;46158;52.850;6.970;2023-02-01T17:23:32;13.60;71.80
60313;DHT22;46158;52.850;6.970;2023-02-01T17:25:58;13.60;71.80
60313;DHT22;46158;52.850;6.970;2023-02-01T17:28:24;13.60;71.80
60313;DHT22;46158;52.850;6.970;2023-02-01T17:30:49;13.60;71.80
60313;DHT22;46158;52.850;6.970;2023-02-01T17:33:20;13.60;71.80
60313;DHT22;46158;52.850;6.970;2023-02-01T17:35:46;13.60;71.90
60313;DHT22;46158;52.850;6.970;2023-02-01T17:38:12;13.60;71.90
60313;DHT22;46158;52.850;6.970;2023-02-01T17:40:38;13.60;71.90
60313;DHT22;46158;52.850;6.970;2023-02-01T17:43:04;13.60;72.00
60313;DHT22;46158;52.850;6.970;2023-02-01T17:45:41;13.60;72.10
60313;DHT22;46158;52.850;6.970;2023-02-01T17:48:11;13.60;72.10
60313;DHT22;46158;52.850;6.970;2023-02-01T17:50:37;13.60;72.10
60313;DHT22;46158;52.850;6.970;2023-02-01T17:53:03;13.60;72.10
60313;DHT22;46158;52.850;6.970;2023-02-01T17:55:31;13.60;72.10
60313;DHT22;46158;52.850;6.970;2023-02-01T17:57:58;13.60;72.10
60313;DHT22;46158;52.850;6.970;2023-02-01T18:00:27;13.60;72.10
60313;DHT22;46158;52.850;6.970;2023-02-01T18:02:52;13.60;72.10
60313;DHT22;46158;52.850;6.970;2023-02-01T18:05:22;13.60;72.10
60313;DHT22;46158;52.850;6.970;2023-02-01T18:07:48;13.60;72.20
60313;DHT22;46158;52.850;6.970;2023-02-01T18:10:17;13.70;72.20